sensor_id;sensor_type;location;lat;lon;timestamp;P1;durP1;ratioP1;P2;durP2;ratioP2
17596;SDS011;8917;50.942;6.946;2023-06-26T00:01:31;6.78;;;5.88;;
17596;SDS011;8917;50.942;6.946;2023-06-26T00:03:58;7.25;;;5.63;;
17596;SDS011;8917;50.942;6.946;2023-06-26T00:06:26;6.00;;;5.43;;
17596;SDS011;8917;50.942;6.946;2023-06-26T00:08:53;6.28;;;5.68;;
17596;SDS011;8917;50.942;6.946;2023-06-26T00:11:20;7.50;;;5.82;;
17596;SDS011;8917;50.942;6.946;2023-06-26T00:13:48;6.13;;;5.47;;
17596;SDS011;8917;50.942;6.946;2023-06-26T00:16:16;6.32;;;5.55;;
17596;SDS011;8917;50.942;6.946;2023-06-26T00:18:44;5.90;;;5.40;;
17596;SDS011;8917;50.942;6.946;2023-06-26T00:21:11;6.88;;;5.90;;
17596;SDS011;8917;50.942;6.946;2023-06-26T00:23:38;6.30;;;5.65;;
17596;SDS011;8917;50.942;6.946;2023-06-26T00:26:05;6.07;;;5.47;;
17596;SDS011;8917;50.942;6.946;2023-06-26T00:28:32;7.07;;;6.20;;
17596;SDS011;8917;50.942;6.946;2023-06-26T00:30:59;6.38;;;5.78;;
17596;SDS011;8917;50.942;6.946;2023-06-26T00:33:28;6.53;;;5.93;;
17596;SDS011;8917;50.942;6.946;2023-06-26T00:35:55;7.07;;;6.38;;
17596;SDS011;8917;50.942;6.946;2023-06-26T00:38:23;7.15;;;5.95;;
17596;SDS011;8917;50.942;6.946;2023-06-26T00:40:50;6.78;;;5.68;;
17596;SDS011;8917;50.942;6.946;2023-06-26T00:43:17;7.05;;;6.20;;
17596;SDS011;8917;50.942;6.946;2023-06-26T00:45:44;6.28;;;5.68;;
17596;SDS011;8917;50.942;6.946;2023-06-26T00:48:11;6.50;;;5.90;;
17596;SDS011;8917;50.942;6.946;2023-06-26T00:50:40;6.93;;;6.22;;
17596;SDS011;8917;50.942;6.946;2023-06-26T00:53:08;7.28;;;6.10;;
17596;SDS011;8917;50.942;6.946;2023-06-26T00:55:36;6.53;;;5.93;;
17596;SDS011;8917;50.942;6.946;2023-06-26T00:58:03;6.45;;;5.85;;
17596;SDS011;8917;50.942;6.946;2023-06-26T01:00:30;6.97;;;6.03;;
17596;SDS011;8917;50.942;6.946;2023-06-26T01:02:57;7.32;;;6.30;;
17596;SDS011;8917;50.942;6.946;2023-06-26T01:05:24;6.63;;;5.68;;
17596;SDS011;8917;50.942;6.946;2023-06-26T01:07:53;6.43;;;5.82;;
17596;SDS011;8917;50.942;6.946;2023-06-26T01:10:21;9.45;;;6.65;;
17596;SDS011;8917;50.942;6.946;2023-06-26T01:12:48;6.63;;;5.90;;
17596;SDS011;8917;50.942;6.946;2023-06-26T01:15:15;5.85;;;5.35;;
17596;SDS011;8917;50.942;6.946;2023-06-26T01:17:43;8.35;;;6.28;;
17596;SDS011;8917;50.942;6.946;2023-06-26T01:20:12;6.25;;;5.65;;
17596;SDS011;8917;50.942;6.946;2023-06-26T01:22:43;6.82;;;6.13;;
17596;SDS011;8917;50.942;6.946;2023-06-26T01:25:15;6.63;;;6.03;;
17596;SDS011;8917;50.942;6.946;2023-06-26T01:27:47;6.55;;;5.85;;
17596;SDS011;8917;50.942;6.946;2023-06-26T01:30:15;6.28;;;5.68;;
17596;SDS011;8917;50.942;6.946;2023-06-26T01:32:43;6.82;;;6.10;;
17596;SDS011;8917;50.942;6.946;2023-06-26T01:35:11;7.40;;;6.03;;
17596;SDS011;8917;50.942;6.946;2023-06-26T01:37:39;7.35;;;6.65;;
17596;SDS011;8917;50.942;6.946;2023-06-26T01:40:06;6.28;;;5.68;;
17596;SDS011;8917;50.942;6.946;2023-06-26T01:42:34;7.20;;;5.95;;
17596;SDS011;8917;50.942;6.946;2023-06-26T01:45:05;7.60;;;5.97;;
17596;SDS011;8917;50.942;6.946;2023-06-26T01:47:34;7.00;;;6.40;;
17596;SDS011;8917;50.942;6.946;2023-06-26T01:50:05;6.32;;;5.72;;
17596;SDS011;8917;50.942;6.946;2023-06-26T01:52:35;6.90;;;6.18;;
17596;SDS011;8917;50.942;6.946;2023-06-26T01:55:08;6.90;;;6.18;;
17596;SDS011;8917;50.942;6.946;2023-06-26T01:57:37;6.75;;;5.88;;
17596;SDS011;8917;50.942;6.946;2023-06-26T02:00:07;6.47;;;5.85;;
17596;SDS011;8917;50.942;6.946;2023-06-26T02:02:36;8.25;;;6.72;;
17596;SDS011;8917;50.942;6.946;2023-06-26T02:05:03;9.40;;;5.90;;
17596;SDS011;8917;50.942;6.946;2023-06-26T02:07:31;7.50;;;6.80;;
17596;SDS011;8917;50.942;6.946;2023-06-26T02:09:58;7.15;;;6.40;;
17596;SDS011;8917;50.942;6.946;2023-06-26T02:12:25;6.65;;;6.00;;
17596;SDS011;8917;50.942;6.946;2023-06-26T02:14:52;6.35;;;5.75;;
17596;SDS011;8917;50.942;6.946;2023-06-26T02:17:21;7.00;;;6.40;;
17596;SDS011;8917;50.942;6.946;2023-06-26T02:19:48;6.38;;;5.78;;
17596;SDS011;8917;50.942;6.946;2023-06-26T02:22:15;7.00;;;6.32;;
17596;SDS011;8917;50.942;6.946;2023-06-26T02:24:43;6.88;;;6.28;;
17596;SDS011;8917;50.942;6.946;2023-06-26T02:27:10;6.53;;;5.93;;
17596;SDS011;8917;50.942;6.946;2023-06-26T02:29:38;6.95;;;6.25;;
17596;SDS011;8917;50.942;6.946;2023-06-26T02:32:05;6.90;;;6.20;;
17596;SDS011;8917;50.942;6.946;2023-06-26T02:34:34;7.05;;;6.35;;
17596;SDS011;8917;50.942;6.946;2023-06-26T02:37:02;7.90;;;6.53;;
17596;SDS011;8917;50.942;6.946;2023-06-26T02:39:31;7.22;;;6.53;;
17596;SDS011;8917;50.942;6.946;2023-06-26T02:41:58;7.05;;;6.35;;
17596;SDS011;8917;50.942;6.946;2023-06-26T02:44:26;6.82;;;6.13;;
17596;SDS011;8917;50.942;6.946;2023-06-26T02:46:53;7.47;;;6.65;;
17596;SDS011;8917;50.942;6.946;2023-06-26T02:49:20;7.75;;;6.43;;
17596;SDS011;8917;50.942;6.946;2023-06-26T02:51:48;7.25;;;6.53;;
17596;SDS011;8917;50.942;6.946;2023-06-26T02:54:16;7.10;;;6.40;;
17596;SDS011;8917;50.942;6.946;2023-06-26T02:56:43;7.32;;;6.63;;
17596;SDS011;8917;50.942;6.946;2023-06-26T02:59:10;7.47;;;6.53;;
17596;SDS011;8917;50.942;6.946;2023-06-26T03:01:37;7.40;;;6.70;;
17596;SDS011;8917;50.942;6.946;2023-06-26T03:04:04;7.38;;;6.63;;
17596;SDS011;8917;50.942;6.946;2023-06-26T03:06:32;7.68;;;6.10;;
17596;SDS011;8917;50.942;6.946;2023-06-26T03:09:00;7.50;;;6.80;;
17596;SDS011;8917;50.942;6.946;2023-06-26T03:11:28;7.68;;;6.32;;
17596;SDS011;8917;50.942;6.946;2023-06-26T03:13:55;6.75;;;6.15;;
17596;SDS011;8917;50.942;6.946;2023-06-26T03:16:23;8.93;;;5.90;;
17596;SDS011;8917;50.942;6.946;2023-06-26T03:18:50;6.35;;;5.75;;
17596;SDS011;8917;50.942;6.946;2023-06-26T03:21:17;6.80;;;5.60;;
17596;SDS011;8917;50.942;6.946;2023-06-26T03:23:44;7.03;;;6.07;;
17596;SDS011;8917;50.942;6.946;2023-06-26T03:26:13;6.75;;;6.15;;
17596;SDS011;8917;50.942;6.946;2023-06-26T03:28:40;7.10;;;5.82;;
17596;SDS011;8917;50.942;6.946;2023-06-26T03:31:08;6.80;;;5.50;;
17596;SDS011;8917;50.942;6.946;2023-06-26T03:33:37;6.53;;;5.90;;
17596;SDS011;8917;50.942;6.946;2023-06-26T03:36:04;7.25;;;6.10;;
17596;SDS011;8917;50.942;6.946;2023-06-26T03:38:32;6.50;;;5.85;;
17596;SDS011;8917;50.942;6.946;2023-06-26T03:40:59;7.38;;;6.40;;
17596;SDS011;8917;50.942;6.946;2023-06-26T03:43:28;6.07;;;5.20;;
17596;SDS011;8917;50.942;6.946;2023-06-26T03:45:55;6.10;;;5.05;;
17596;SDS011;8917;50.942;6.946;2023-06-26T03:48:23;6.32;;;5.38;;
17596;SDS011;8917;50.942;6.946;2023-06-26T03:50:50;7.55;;;5.68;;
17596;SDS011;8917;50.942;6.946;2023-06-26T03:53:17;7.10;;;5.22;;
17596;SDS011;8917;50.942;6.946;2023-06-26T03:55:44;5.95;;;5.35;;
17596;SDS011;8917;50.942;6.946;2023-06-26T03:58:12;6.70;;;5.45;;
17596;SDS011;8917;50.942;6.946;2023-06-26T04:00:40;5.55;;;5.05;;
17596;SDS011;8917;50.942;6.946;2023-06-26T04:03:07;5.60;;;4.63;;
17596;SDS011;8917;50.942;6.946;2023-06-26T04:05:35;5.65;;;4.78;;
17596;SDS011;8917;50.942;6.946;2023-06-26T04:08:03;7.20;;;5.47;;
17596;SDS011;8917;50.942;6.946;2023-06-26T04:10:30;7.68;;;5.20;;
17596;SDS011;8917;50.942;6.946;2023-06-26T04:12:57;6.63;;;4.97;;
17596;SDS011;8917;50.942;6.946;2023-06-26T04:15:25;5.85;;;5.00;;
17596;SDS011;8917;50.942;6.946;2023-06-26T04:17:53;7.15;;;5.38;;
17596;SDS011;8917;50.942;6.946;2023-06-26T04:20:20;5.55;;;4.93;;
17596;SDS011;8917;50.942;6.946;2023-06-26T04:22:47;5.72;;;4.75;;
17596;SDS011;8917;50.942;6.946;2023-06-26T04:25:15;6.15;;;5.05;;
17596;SDS011;8917;50.942;6.946;2023-06-26T04:27:42;8.57;;;4.75;;
17596;SDS011;8917;50.942;6.946;2023-06-26T04:30:09;8.63;;;4.93;;
17596;SDS011;8917;50.942;6.946;2023-06-26T04:32:37;6.25;;;5.00;;
17596;SDS011;8917;50.942;6.946;2023-06-26T04:35:06;5.25;;;4.75;;
17596;SDS011;8917;50.942;6.946;2023-06-26T04:37:35;5.25;;;4.75;;
17596;SDS011;8917;50.942;6.946;2023-06-26T04:40:04;6.93;;;4.80;;
17596;SDS011;8917;50.942;6.946;2023-06-26T04:42:32;5.22;;;4.43;;
17596;SDS011;8917;50.942;6.946;2023-06-26T04:44:59;7.97;;;4.85;;
17596;SDS011;8917;50.942;6.946;2023-06-26T04:47:27;5.90;;;4.93;;
17596;SDS011;8917;50.942;6.946;2023-06-26T04:49:54;7.82;;;5.22;;
17596;SDS011;8917;50.942;6.946;2023-06-26T04:52:23;5.93;;;5.10;;
17596;SDS011;8917;50.942;6.946;2023-06-26T04:54:50;7.03;;;5.10;;
17596;SDS011;8917;50.942;6.946;2023-06-26T04:57:17;6.05;;;4.88;;
17596;SDS011;8917;50.942;6.946;2023-06-26T04:59:45;8.77;;;4.70;;
17596;SDS011;8917;50.942;6.946;2023-06-26T05:02:12;5.03;;;4.40;;
17596;SDS011;8917;50.942;6.946;2023-06-26T05:04:40;7.07;;;4.57;;
17596;SDS011;8917;50.942;6.946;2023-06-26T05:07:07;5.40;;;4.60;;
17596;SDS011;8917;50.942;6.946;2023-06-26T05:09:36;9.75;;;4.63;;
17596;SDS011;8917;50.942;6.946;2023-06-26T05:12:03;4.88;;;4.38;;
17596;SDS011;8917;50.942;6.946;2023-06-26T05:14:31;7.60;;;4.90;;
17596;SDS011;8917;50.942;6.946;2023-06-26T05:16:58;8.07;;;5.35;;
17596;SDS011;8917;50.942;6.946;2023-06-26T05:19:25;7.07;;;4.68;;
17596;SDS011;8917;50.942;6.946;2023-06-26T05:21:52;6.93;;;4.47;;
17596;SDS011;8917;50.942;6.946;2023-06-26T05:24:20;7.18;;;4.60;;
17596;SDS011;8917;50.942;6.946;2023-06-26T05:26:49;5.97;;;4.45;;
17596;SDS011;8917;50.942;6.946;2023-06-26T05:29:17;6.93;;;4.90;;
17596;SDS011;8917;50.942;6.946;2023-06-26T05:31:44;6.05;;;4.65;;
17596;SDS011;8917;50.942;6.946;2023-06-26T05:34:11;6.50;;;4.80;;
17596;SDS011;8917;50.942;6.946;2023-06-26T05:36:40;8.05;;;4.50;;
17596;SDS011;8917;50.942;6.946;2023-06-26T05:39:08;5.18;;;4.68;;
17596;SDS011;8917;50.942;6.946;2023-06-26T05:41:36;6.03;;;4.70;;
17596;SDS011;8917;50.942;6.946;2023-06-26T05:44:04;5.63;;;4.70;;
17596;SDS011;8917;50.942;6.946;2023-06-26T05:46:31;7.25;;;4.60;;
17596;SDS011;8917;50.942;6.946;2023-06-26T05:48:59;9.30;;;5.30;;
17596;SDS011;8917;50.942;6.946;2023-06-26T05:51:27;6.68;;;4.43;;
17596;SDS011;8917;50.942;6.946;2023-06-26T05:53:54;8.38;;;4.57;;
17596;SDS011;8917;50.942;6.946;2023-06-26T05:56:22;5.50;;;4.70;;
17596;SDS011;8917;50.942;6.946;2023-06-26T05:58:49;9.18;;;4.45;;
17596;SDS011;8917;50.942;6.946;2023-06-26T06:01:19;6.85;;;4.50;;
17596;SDS011;8917;50.942;6.946;2023-06-26T06:03:46;6.57;;;4.03;;
17596;SDS011;8917;50.942;6.946;2023-06-26T06:06:13;6.15;;;4.35;;
17596;SDS011;8917;50.942;6.946;2023-06-26T06:08:41;8.82;;;4.82;;
17596;SDS011;8917;50.942;6.946;2023-06-26T06:11:08;6.43;;;5.05;;
17596;SDS011;8917;50.942;6.946;2023-06-26T06:13:35;7.10;;;4.40;;
17596;SDS011;8917;50.942;6.946;2023-06-26T06:16:02;6.90;;;4.75;;
17596;SDS011;8917;50.942;6.946;2023-06-26T06:18:31;9.52;;;4.40;;
17596;SDS011;8917;50.942;6.946;2023-06-26T06:20:58;6.82;;;4.80;;
17596;SDS011;8917;50.942;6.946;2023-06-26T06:23:25;7.75;;;4.32;;
17596;SDS011;8917;50.942;6.946;2023-06-26T06:25:52;7.93;;;4.32;;
17596;SDS011;8917;50.942;6.946;2023-06-26T06:28:20;8.90;;;5.05;;
17596;SDS011;8917;50.942;6.946;2023-06-26T06:30:47;7.32;;;4.30;;
17596;SDS011;8917;50.942;6.946;2023-06-26T06:33:14;5.55;;;3.97;;
17596;SDS011;8917;50.942;6.946;2023-06-26T06:35:43;7.32;;;4.15;;
17596;SDS011;8917;50.942;6.946;2023-06-26T06:38:10;9.45;;;4.72;;
17596;SDS011;8917;50.942;6.946;2023-06-26T06:40:37;8.30;;;4.50;;
17596;SDS011;8917;50.942;6.946;2023-06-26T06:43:04;7.10;;;4.78;;
17596;SDS011;8917;50.942;6.946;2023-06-26T06:45:31;9.40;;;4.30;;
17596;SDS011;8917;50.942;6.946;2023-06-26T06:47:58;8.27;;;4.28;;
17596;SDS011;8917;50.942;6.946;2023-06-26T06:50:26;7.53;;;3.92;;
17596;SDS011;8917;50.942;6.946;2023-06-26T06:52:54;8.20;;;4.30;;
17596;SDS011;8917;50.942;6.946;2023-06-26T06:55:22;9.45;;;4.82;;
17596;SDS011;8917;50.942;6.946;2023-06-26T06:57:50;7.65;;;4.57;;
17596;SDS011;8917;50.942;6.946;2023-06-26T07:00:18;5.70;;;3.90;;
17596;SDS011;8917;50.942;6.946;2023-06-26T07:02:45;10.20;;;4.57;;
17596;SDS011;8917;50.942;6.946;2023-06-26T07:05:13;10.27;;;4.05;;
17596;SDS011;8917;50.942;6.946;2023-06-26T07:07:40;21.92;;;4.78;;
17596;SDS011;8917;50.942;6.946;2023-06-26T07:10:09;9.07;;;3.85;;
17596;SDS011;8917;50.942;6.946;2023-06-26T07:12:37;10.00;;;4.22;;
17596;SDS011;8917;50.942;6.946;2023-06-26T07:15:04;8.25;;;4.28;;
17596;SDS011;8917;50.942;6.946;2023-06-26T07:17:32;8.82;;;4.35;;
17596;SDS011;8917;50.942;6.946;2023-06-26T07:20:00;11.18;;;4.20;;
17596;SDS011;8917;50.942;6.946;2023-06-26T07:22:29;9.07;;;4.43;;
17596;SDS011;8917;50.942;6.946;2023-06-26T07:24:56;8.77;;;4.50;;
17596;SDS011;8917;50.942;6.946;2023-06-26T07:27:25;7.45;;;4.65;;
17596;SDS011;8917;50.942;6.946;2023-06-26T07:29:52;8.27;;;4.35;;
17596;SDS011;8917;50.942;6.946;2023-06-26T07:32:19;8.48;;;4.70;;
17596;SDS011;8917;50.942;6.946;2023-06-26T07:34:46;8.18;;;4.57;;
17596;SDS011;8917;50.942;6.946;2023-06-26T07:37:14;7.15;;;4.10;;
17596;SDS011;8917;50.942;6.946;2023-06-26T07:39:41;7.63;;;4.32;;
17596;SDS011;8917;50.942;6.946;2023-06-26T07:42:08;10.80;;;5.25;;
17596;SDS011;8917;50.942;6.946;2023-06-26T07:44:37;8.15;;;4.53;;
17596;SDS011;8917;50.942;6.946;2023-06-26T07:47:04;6.85;;;4.50;;
17596;SDS011;8917;50.942;6.946;2023-06-26T07:49:31;6.43;;;4.13;;
17596;SDS011;8917;50.942;6.946;2023-06-26T07:51:58;6.68;;;4.30;;
17596;SDS011;8917;50.942;6.946;2023-06-26T07:54:25;9.45;;;4.38;;
17596;SDS011;8917;50.942;6.946;2023-06-26T07:56:53;7.53;;;4.05;;
17596;SDS011;8917;50.942;6.946;2023-06-26T07:59:20;8.38;;;4.15;;
17596;SDS011;8917;50.942;6.946;2023-06-26T08:01:49;8.57;;;4.10;;
17596;SDS011;8917;50.942;6.946;2023-06-26T08:04:17;9.30;;;4.70;;
17596;SDS011;8917;50.942;6.946;2023-06-26T08:06:45;5.53;;;3.75;;
17596;SDS011;8917;50.942;6.946;2023-06-26T08:09:12;4.93;;;3.92;;
17596;SDS011;8917;50.942;6.946;2023-06-26T08:11:39;6.57;;;4.18;;
17596;SDS011;8917;50.942;6.946;2023-06-26T08:14:06;7.15;;;4.03;;
17596;SDS011;8917;50.942;6.946;2023-06-26T08:16:34;6.55;;;3.80;;
17596;SDS011;8917;50.942;6.946;2023-06-26T08:19:02;8.18;;;3.90;;
17596;SDS011;8917;50.942;6.946;2023-06-26T08:21:29;10.65;;;6.10;;
17596;SDS011;8917;50.942;6.946;2023-06-26T08:23:57;7.43;;;4.05;;
17596;SDS011;8917;50.942;6.946;2023-06-26T08:26:24;8.38;;;4.60;;
17596;SDS011;8917;50.942;6.946;2023-06-26T08:28:51;8.50;;;4.28;;
17596;SDS011;8917;50.942;6.946;2023-06-26T08:31:18;10.60;;;4.20;;
17596;SDS011;8917;50.942;6.946;2023-06-26T08:33:46;8.43;;;4.25;;
17596;SDS011;8917;50.942;6.946;2023-06-26T08:36:14;7.88;;;3.70;;
17596;SDS011;8917;50.942;6.946;2023-06-26T08:38:42;7.78;;;4.40;;
17596;SDS011;8917;50.942;6.946;2023-06-26T08:41:09;7.60;;;4.22;;
17596;SDS011;8917;50.942;6.946;2023-06-26T08:43:36;7.57;;;4.30;;
17596;SDS011;8917;50.942;6.946;2023-06-26T08:46:04;7.15;;;4.10;;
17596;SDS011;8917;50.942;6.946;2023-06-26T08:48:31;7.90;;;3.92;;
17596;SDS011;8917;50.942;6.946;2023-06-26T08:51:00;9.48;;;4.18;;
17596;SDS011;8917;50.942;6.946;2023-06-26T08:53:32;6.85;;;4.00;;
17596;SDS011;8917;50.942;6.946;2023-06-26T08:56:00;7.22;;;4.32;;
17596;SDS011;8917;50.942;6.946;2023-06-26T08:58:28;6.80;;;3.92;;
17596;SDS011;8917;50.942;6.946;2023-06-26T09:00:56;10.40;;;4.40;;
17596;SDS011;8917;50.942;6.946;2023-06-26T09:03:24;6.68;;;3.83;;
17596;SDS011;8917;50.942;6.946;2023-06-26T09:05:51;7.63;;;3.95;;
17596;SDS011;8917;50.942;6.946;2023-06-26T09:08:18;7.38;;;4.10;;
17596;SDS011;8917;50.942;6.946;2023-06-26T09:10:47;7.07;;;4.20;;
17596;SDS011;8917;50.942;6.946;2023-06-26T09:13:14;8.45;;;3.95;;
17596;SDS011;8917;50.942;6.946;2023-06-26T09:15:42;11.27;;;4.22;;
17596;SDS011;8917;50.942;6.946;2023-06-26T09:18:10;7.88;;;4.38;;
17596;SDS011;8917;50.942;6.946;2023-06-26T09:20:37;6.53;;;3.47;;
17596;SDS011;8917;50.942;6.946;2023-06-26T09:23:04;9.07;;;4.30;;
17596;SDS011;8917;50.942;6.946;2023-06-26T09:25:32;7.95;;;4.13;;
17596;SDS011;8917;50.942;6.946;2023-06-26T09:28:02;9.65;;;4.72;;
17596;SDS011;8917;50.942;6.946;2023-06-26T09:30:31;9.00;;;4.07;;
17596;SDS011;8917;50.942;6.946;2023-06-26T09:33:00;9.43;;;4.18;;
17596;SDS011;8917;50.942;6.946;2023-06-26T09:35:39;9.25;;;4.18;;
17596;SDS011;8917;50.942;6.946;2023-06-26T09:38:06;10.07;;;4.30;;
17596;SDS011;8917;50.942;6.946;2023-06-26T09:40:34;12.45;;;3.80;;
17596;SDS011;8917;50.942;6.946;2023-06-26T09:43:05;7.80;;;4.18;;
17596;SDS011;8917;50.942;6.946;2023-06-26T09:45:32;8.10;;;3.80;;
17596;SDS011;8917;50.942;6.946;2023-06-26T09:48:01;6.82;;;3.45;;
17596;SDS011;8917;50.942;6.946;2023-06-26T09:50:29;5.70;;;3.63;;
17596;SDS011;8917;50.942;6.946;2023-06-26T09:52:57;6.45;;;3.50;;
17596;SDS011;8917;50.942;6.946;2023-06-26T09:55:25;11.38;;;4.10;;
17596;SDS011;8917;50.942;6.946;2023-06-26T09:57:52;8.57;;;4.30;;
17596;SDS011;8917;50.942;6.946;2023-06-26T10:00:24;10.82;;;3.72;;
17596;SDS011;8917;50.942;6.946;2023-06-26T10:02:51;8.10;;;3.70;;
17596;SDS011;8917;50.942;6.946;2023-06-26T10:05:18;10.77;;;3.60;;
17596;SDS011;8917;50.942;6.946;2023-06-26T10:07:46;7.45;;;3.90;;
17596;SDS011;8917;50.942;6.946;2023-06-26T10:10:13;9.32;;;3.95;;
17596;SDS011;8917;50.942;6.946;2023-06-26T10:12:43;9.30;;;3.72;;
17596;SDS011;8917;50.942;6.946;2023-06-26T10:15:12;16.48;;;3.97;;
17596;SDS011;8917;50.942;6.946;2023-06-26T10:17:43;10.85;;;3.60;;
17596;SDS011;8917;50.942;6.946;2023-06-26T10:20:11;7.47;;;3.50;;
17596;SDS011;8917;50.942;6.946;2023-06-26T10:22:41;7.82;;;3.72;;
17596;SDS011;8917;50.942;6.946;2023-06-26T10:25:10;11.32;;;3.70;;
17596;SDS011;8917;50.942;6.946;2023-06-26T10:27:38;10.70;;;3.63;;
17596;SDS011;8917;50.942;6.946;2023-06-26T10:30:09;10.00;;;3.65;;
17596;SDS011;8917;50.942;6.946;2023-06-26T10:32:38;10.18;;;3.15;;
17596;SDS011;8917;50.942;6.946;2023-06-26T10:35:07;10.32;;;3.13;;
17596;SDS011;8917;50.942;6.946;2023-06-26T10:37:41;6.50;;;2.75;;
17596;SDS011;8917;50.942;6.946;2023-06-26T10:40:09;5.53;;;2.88;;
17596;SDS011;8917;50.942;6.946;2023-06-26T10:42:36;5.80;;;3.05;;
17596;SDS011;8917;50.942;6.946;2023-06-26T10:45:10;5.47;;;3.40;;
17596;SDS011;8917;50.942;6.946;2023-06-26T10:47:39;5.90;;;2.67;;
17596;SDS011;8917;50.942;6.946;2023-06-26T10:50:22;8.18;;;2.90;;
17596;SDS011;8917;50.942;6.946;2023-06-26T10:55:35;7.85;;;3.28;;
17596;SDS011;8917;50.942;6.946;2023-06-26T10:58:03;4.57;;;2.70;;
17596;SDS011;8917;50.942;6.946;2023-06-26T11:00:30;7.65;;;3.58;;
17596;SDS011;8917;50.942;6.946;2023-06-26T11:02:57;7.13;;;3.30;;
17596;SDS011;8917;50.942;6.946;2023-06-26T11:05:28;8.60;;;3.22;;
17596;SDS011;8917;50.942;6.946;2023-06-26T11:08:05;6.35;;;3.13;;
17596;SDS011;8917;50.942;6.946;2023-06-26T11:10:48;8.27;;;2.45;;
17596;SDS011;8917;50.942;6.946;2023-06-26T11:13:16;4.75;;;2.60;;
17596;SDS011;8917;50.942;6.946;2023-06-26T11:15:44;6.70;;;3.08;;
17596;SDS011;8917;50.942;6.946;2023-06-26T11:18:12;4.88;;;2.60;;
17596;SDS011;8917;50.942;6.946;2023-06-26T11:20:41;4.82;;;2.60;;
17596;SDS011;8917;50.942;6.946;2023-06-26T11:23:08;8.57;;;3.00;;
17596;SDS011;8917;50.942;6.946;2023-06-26T11:25:36;7.80;;;3.03;;
17596;SDS011;8917;50.942;6.946;2023-06-26T11:28:04;5.03;;;3.10;;
17596;SDS011;8917;50.942;6.946;2023-06-26T11:30:31;10.10;;;2.85;;
17596;SDS011;8917;50.942;6.946;2023-06-26T11:33:02;11.38;;;2.83;;
17596;SDS011;8917;50.942;6.946;2023-06-26T11:35:30;11.68;;;3.20;;
17596;SDS011;8917;50.942;6.946;2023-06-26T11:37:59;9.13;;;2.55;;
17596;SDS011;8917;50.942;6.946;2023-06-26T11:40:29;8.32;;;2.70;;
17596;SDS011;8917;50.942;6.946;2023-06-26T11:42:57;7.45;;;2.90;;
17596;SDS011;8917;50.942;6.946;2023-06-26T11:45:25;5.28;;;2.70;;
17596;SDS011;8917;50.942;6.946;2023-06-26T11:47:52;7.28;;;2.85;;
17596;SDS011;8917;50.942;6.946;2023-06-26T11:50:22;5.22;;;2.60;;
17596;SDS011;8917;50.942;6.946;2023-06-26T11:52:52;4.18;;;3.10;;
17596;SDS011;8917;50.942;6.946;2023-06-26T11:55:22;3.95;;;2.42;;
17596;SDS011;8917;50.942;6.946;2023-06-26T11:57:50;4.47;;;2.40;;
17596;SDS011;8917;50.942;6.946;2023-06-26T12:00:17;3.25;;;2.35;;
17596;SDS011;8917;50.942;6.946;2023-06-26T12:02:44;4.80;;;2.47;;
17596;SDS011;8917;50.942;6.946;2023-06-26T12:05:12;3.53;;;2.33;;
17596;SDS011;8917;50.942;6.946;2023-06-26T12:07:40;6.82;;;2.70;;
17596;SDS011;8917;50.942;6.946;2023-06-26T12:10:08;3.25;;;2.60;;
17596;SDS011;8917;50.942;6.946;2023-06-26T12:12:37;6.10;;;2.67;;
17596;SDS011;8917;50.942;6.946;2023-06-26T12:15:05;4.25;;;2.22;;
17596;SDS011;8917;50.942;6.946;2023-06-26T12:17:33;3.72;;;2.28;;
17596;SDS011;8917;50.942;6.946;2023-06-26T12:20:00;6.20;;;2.78;;
17596;SDS011;8917;50.942;6.946;2023-06-26T12:22:33;3.83;;;2.50;;
17596;SDS011;8917;50.942;6.946;2023-06-26T12:25:00;6.68;;;2.35;;
17596;SDS011;8917;50.942;6.946;2023-06-26T12:27:27;8.07;;;2.20;;
17596;SDS011;8917;50.942;6.946;2023-06-26T12:29:57;3.95;;;2.22;;
17596;SDS011;8917;50.942;6.946;2023-06-26T12:32:24;5.18;;;2.25;;
17596;SDS011;8917;50.942;6.946;2023-06-26T12:34:52;11.05;;;3.08;;
17596;SDS011;8917;50.942;6.946;2023-06-26T12:37:19;4.75;;;2.33;;
17596;SDS011;8917;50.942;6.946;2023-06-26T12:39:47;6.72;;;2.40;;
17596;SDS011;8917;50.942;6.946;2023-06-26T12:42:15;5.90;;;2.40;;
17596;SDS011;8917;50.942;6.946;2023-06-26T12:44:42;8.65;;;3.10;;
17596;SDS011;8917;50.942;6.946;2023-06-26T12:47:11;4.20;;;2.17;;
17596;SDS011;8917;50.942;6.946;2023-06-26T12:49:40;5.13;;;2.22;;
17596;SDS011;8917;50.942;6.946;2023-06-26T12:52:08;4.82;;;2.08;;
17596;SDS011;8917;50.942;6.946;2023-06-26T12:54:35;7.70;;;2.45;;
17596;SDS011;8917;50.942;6.946;2023-06-26T12:57:03;6.40;;;2.00;;
17596;SDS011;8917;50.942;6.946;2023-06-26T12:59:30;5.70;;;2.20;;
17596;SDS011;8917;50.942;6.946;2023-06-26T13:01:57;7.97;;;2.20;;
17596;SDS011;8917;50.942;6.946;2023-06-26T13:04:27;6.20;;;1.98;;
17596;SDS011;8917;50.942;6.946;2023-06-26T13:06:54;3.95;;;1.90;;
17596;SDS011;8917;50.942;6.946;2023-06-26T13:09:22;3.50;;;1.90;;
17596;SDS011;8917;50.942;6.946;2023-06-26T13:11:50;4.60;;;1.90;;
17596;SDS011;8917;50.942;6.946;2023-06-26T13:14:17;7.00;;;2.05;;
17596;SDS011;8917;50.942;6.946;2023-06-26T13:16:44;14.70;;;2.30;;
17596;SDS011;8917;50.942;6.946;2023-06-26T13:19:11;6.95;;;2.08;;
17596;SDS011;8917;50.942;6.946;2023-06-26T13:21:40;6.82;;;2.05;;
17596;SDS011;8917;50.942;6.946;2023-06-26T13:24:08;11.13;;;2.33;;
17596;SDS011;8917;50.942;6.946;2023-06-26T13:26:35;6.00;;;1.95;;
17596;SDS011;8917;50.942;6.946;2023-06-26T13:29:02;11.57;;;2.35;;
17596;SDS011;8917;50.942;6.946;2023-06-26T13:31:29;9.45;;;2.58;;
17596;SDS011;8917;50.942;6.946;2023-06-26T13:33:57;8.35;;;2.20;;
17596;SDS011;8917;50.942;6.946;2023-06-26T13:36:24;9.10;;;1.92;;
17596;SDS011;8917;50.942;6.946;2023-06-26T13:38:53;5.47;;;1.67;;
17596;SDS011;8917;50.942;6.946;2023-06-26T13:41:21;7.13;;;2.08;;
17596;SDS011;8917;50.942;6.946;2023-06-26T13:43:49;5.70;;;2.30;;
17596;SDS011;8917;50.942;6.946;2023-06-26T13:46:16;6.18;;;2.08;;
17596;SDS011;8917;50.942;6.946;2023-06-26T13:48:43;5.32;;;2.22;;
17596;SDS011;8917;50.942;6.946;2023-06-26T13:51:11;6.25;;;1.83;;
17596;SDS011;8917;50.942;6.946;2023-06-26T13:53:38;3.95;;;1.90;;
17596;SDS011;8917;50.942;6.946;2023-06-26T13:56:07;3.97;;;1.58;;
17596;SDS011;8917;50.942;6.946;2023-06-26T13:58:35;4.05;;;1.88;;
17596;SDS011;8917;50.942;6.946;2023-06-26T14:01:03;7.45;;;2.05;;
17596;SDS011;8917;50.942;6.946;2023-06-26T14:03:30;4.50;;;1.70;;
17596;SDS011;8917;50.942;6.946;2023-06-26T14:05:58;3.00;;;1.58;;
17596;SDS011;8917;50.942;6.946;2023-06-26T14:08:25;5.22;;;1.80;;
17596;SDS011;8917;50.942;6.946;2023-06-26T14:10:52;10.55;;;2.40;;
17596;SDS011;8917;50.942;6.946;2023-06-26T14:13:21;4.60;;;1.77;;
17596;SDS011;8917;50.942;6.946;2023-06-26T14:15:48;5.07;;;1.80;;
17596;SDS011;8917;50.942;6.946;2023-06-26T14:18:17;5.72;;;1.70;;
17596;SDS011;8917;50.942;6.946;2023-06-26T14:20:45;4.65;;;1.73;;
17596;SDS011;8917;50.942;6.946;2023-06-26T14:23:13;6.50;;;1.83;;
17596;SDS011;8917;50.942;6.946;2023-06-26T14:25:40;5.60;;;1.85;;
17596;SDS011;8917;50.942;6.946;2023-06-26T14:28:07;3.30;;;1.58;;
17596;SDS011;8917;50.942;6.946;2023-06-26T14:30:36;3.85;;;1.67;;
17596;SDS011;8917;50.942;6.946;2023-06-26T14:33:03;6.07;;;1.88;;
17596;SDS011;8917;50.942;6.946;2023-06-26T14:35:30;5.68;;;1.88;;
17596;SDS011;8917;50.942;6.946;2023-06-26T14:37:57;4.85;;;1.83;;
17596;SDS011;8917;50.942;6.946;2023-06-26T14:40:25;3.80;;;1.90;;
17596;SDS011;8917;50.942;6.946;2023-06-26T14:42:52;5.47;;;2.10;;
17596;SDS011;8917;50.942;6.946;2023-06-26T14:45:19;3.42;;;1.80;;
17596;SDS011;8917;50.942;6.946;2023-06-26T14:47:48;4.13;;;1.75;;
17596;SDS011;8917;50.942;6.946;2023-06-26T14:50:15;2.88;;;1.85;;
17596;SDS011;8917;50.942;6.946;2023-06-26T14:52:42;4.65;;;2.28;;
17596;SDS011;8917;50.942;6.946;2023-06-26T14:55:09;8.02;;;1.70;;
17596;SDS011;8917;50.942;6.946;2023-06-26T14:57:36;6.20;;;2.13;;
17596;SDS011;8917;50.942;6.946;2023-06-26T15:00:04;7.03;;;1.95;;
17596;SDS011;8917;50.942;6.946;2023-06-26T15:02:31;3.13;;;1.80;;
17596;SDS011;8917;50.942;6.946;2023-06-26T15:05:00;2.90;;;1.58;;
17596;SDS011;8917;50.942;6.946;2023-06-26T15:07:27;5.00;;;1.85;;